Disney Magic — C6PT7 — position and weather

sailwx.info

Track history (hours):
 
Tides and Currents Weather Stations Pressure Air Temp Water Temp Dewpoint Dewpoint Depression Visibility Wind Speed Wind Dir Waves Ship Positions

Disney Magic

Last reported at 2018-May-22 06:00 UTC. Time now 2018-May-22 06:25 UTC.
Position N 38°36' W 009°24'.

Type: Passenger vessel. MMSI: 308516000.

Date/timePositionNaut miles runAvg speedWind from/ knotsBaromVisibWave heightAir tempDewpointWater temp
2018-May-22 06:00N 38°36' W 009°24'917.4
2018-May-22 05:30N 38°34' W 009°35'917.4
2018-May-22 05:01N 38°32' W 009°46'917.5
2018-May-22 04:30N 38°30' W 009°57'917.5
2018-May-22 04:00N 38°28' W 010°07'2617.6
2018-May-22 02:32N 38°25' W 010°40'017.5
2018-May-22 02:30N 38°25' W 010°41'917.5
2018-May-22 02:01N 38°25' W 010°52'1017.6
2018-May-22 01:26N 38°24' W 011°05'1 2.1
2018-May-22 01:00N 38°24' W 011°06'15619.5 180 / 201012.4 2.2 16.016.017.0
2018-May-21 17:00N 38°12' W 014°24'42921.2 240 / 141011.0 2.2 19.019.016.0
2018-May-20 20:48N 37°45' W 023°27'620.9
2018-May-20 20:30N 37°45' W 023°35'1121.0
2018-May-20 20:00N 37°44' W 023°48'1121.1
2018-May-20 19:30N 37°43' W 024°01'1020.8
2018-May-20 19:00N 37°43' W 024°14'1121.1
2018-May-20 18:31N 37°42' W 024°28'1121.4
2018-May-20 18:00N 37°41' W 024°41'1121.2
2018-May-20 17:30N 37°40' W 024°55'1020.8
2018-May-20 17:01N 37°40' W 025°08'1121.2
2018-May-20 16:30N 37°40' W 025°21'1020.7
2018-May-20 16:00N 37°41' W 025°34'510.6
2018-May-20 15:30N 37°44' W 025°40'0 0.0
2018-May-20 14:58N 37°44' W 025°40'0 0.0
2018-May-20 14:28N 37°44' W 025°40'0 0.0
2018-May-20 13:58N 37°44' W 025°40'0 0.0
2018-May-20 13:28N 37°44' W 025°40'0 0.0
2018-May-20 12:58N 37°44' W 025°40'0 0.0
2018-May-20 12:28N 37°44' W 025°40'0 0.0
2018-May-20 11:58N 37°44' W 025°40'0 0.0
2018-May-20 11:28N 37°44' W 025°40'0 0.0
2018-May-20 10:58N 37°44' W 025°40'0 0.0
2018-May-20 10:28N 37°44' W 025°40'0 0.0
2018-May-20 09:58N 37°44' W 025°40'0 0.0
2018-May-20 09:30N 37°44' W 025°40'0 0.0
2018-May-20 09:00N 37°44' W 025°40'0 0.0
2018-May-20 08:30N 37°44' W 025°40'0 0.0
2018-May-20 08:00N 37°44' W 025°40'0 0.0
2018-May-20 07:30N 37°44' W 025°40'0 0.0
2018-May-20 07:00N 37°44' W 025°40'0 1.0
2018-May-20 06:30N 37°44' W 025°39'2 4.7
2018-May-20 06:00N 37°42' W 025°41'5 9.7
2018-May-20 05:31N 37°41' W 025°47'5 9.2
2018-May-20 05:00N 37°40' W 025°53'5 9.2
2018-May-20 04:30N 37°39' W 025°58'5 9.8
2018-May-20 04:00N 37°37' W 026°04'5 9.9
2018-May-20 03:30N 37°36' W 026°10'5 9.9
2018-May-20 03:00N 37°35' W 026°16'611.2
2018-May-20 02:30N 37°33' W 026°23'916.9
2018-May-20 02:00N 37°31' W 026°34'816.7
2018-May-20 01:30N 37°29' W 026°44'917.4
2018-May-20 01:00N 37°27' W 026°54'917.3
2018-May-20 00:30N 37°24' W 027°05'917.4
2018-May-20 00:00N 37°22' W 027°15'917.6
2018-May-19 23:29N 37°20' W 027°27'817.4
2018-May-19 23:00N 37°17' W 027°36'917.3
2018-May-19 22:31N 37°15' W 027°47'816.8
2018-May-19 22:00N 37°13' W 027°57'816.7
2018-May-19 21:30N 37°11' W 028°07'816.6
2018-May-19 21:01N 37°09' W 028°17'816.9
2018-May-19 20:30N 37°06' W 028°28'816.9
2018-May-19 20:00N 37°04' W 028°38'917.2
2018-May-19 19:31N 37°02' W 028°48'917.2
2018-May-19 19:00N 36°60' W 028°59'917.1
2018-May-19 18:30N 36°57' W 029°09'18816.3
2018-May-19 07:00N 36°06' W 032°54'47418.2 250 / 121027.010.8 19.816.821.0
2018-May-18 05:00N 34°00' W 042°12'36418.2 180 / 101029.327.0 23.018.224.0
2018-May-17 09:00N 32°24' W 049°12'50520.2 360 / 61029.010.8 23.019.924.7
2018-May-16 08:00N 30°12' W 058°42'21221.2 090 / 101028.327.0 23.019.925.0
2018-May-15 22:00N 29°12' W 062°36'24420.4 100 / 81025.310.8 25.020.425.0
2018-May-15 10:00N 28°12' W 067°06'21619.6 110 / 151022.710.8 25.021.225.3
2018-May-14 23:00N 27°12' W 071°00'25020.8 100 / 131020.110.8 25.021.225.1
2018-May-14 11:00N 26°06' W 075°30'20219.7 110 / 191018.210.8 26.021.526.5
2018-May-14 00:46N 26°12' W 079°15'520.8
2018-May-14 00:30N 26°09' W 079°20'1121.3
2018-May-14 00:00N 26°04' W 079°30'1019.6
2018-May-13 23:30N 25°59' W 079°40'917.9
2018-May-13 23:00N 25°55' W 079°48'918.2
2018-May-13 22:30N 25°50' W 079°57'815.8
2018-May-13 22:00N 25°46' W 080°05'4 8.5
2018-May-13 21:30N 25°46' W 080°09'1 2.0
2018-May-13 20:58N 25°47' W 080°10'0 0.0
2018-May-13 20:28N 25°47' W 080°10'0 0.0
2018-May-13 19:58N 25°47' W 080°10'0 0.0
2018-May-13 19:28N 25°47' W 080°10'0 0.0
2018-May-13 18:58N 25°47' W 080°10'0 0.0
2018-May-13 18:28N 25°47' W 080°10'0 0.0
2018-May-13 17:55N 25°47' W 080°10'0 0.0
2018-May-13 17:28N 25°47' W 080°10'0 0.0
2018-May-13 16:58N 25°47' W 080°10'0 0.0
2018-May-13 16:28N 25°47' W 080°10'0 0.0
2018-May-13 15:58N 25°47' W 080°10'0 0.0
2018-May-13 15:28N 25°47' W 080°10'0 0.0
2018-May-13 14:58N 25°47' W 080°10'0 0.0
2018-May-13 14:28N 25°47' W 080°10'0 0.0
2018-May-13 13:58N 25°47' W 080°10'0 0.0
2018-May-13 13:28N 25°47' W 080°10'0 0.0
2018-May-13 12:58N 25°47' W 080°10'0 0.0
2018-May-13 12:28N 25°47' W 080°10'0 0.0
2018-May-13 11:58N 25°47' W 080°10'0 0.0
2018-May-13 11:28N 25°47' W 080°10'0 0.0
2018-May-13 10:58N 25°47' W 080°10'0 0.0
2018-May-13 10:28N 25°47' W 080°10'0 0.0
2018-May-13 10:00N 25°47' W 080°10'1 1.0
2018-May-13 09:31N 25°47' W 080°11'3 5.4
2018-May-13 09:00N 25°46' W 080°08'611.5
2018-May-13 08:30N 25°47' W 080°02'713.2
2018-May-13 08:00N 25°50' W 079°56'714.8
2018-May-13 07:30N 25°54' W 079°49'815.0
2018-May-13 06:59N 25°58' W 079°42'715.3
2018-May-13 06:30N 26°02' W 079°35'815.6
2018-May-13 06:00N 26°06' W 079°27'815.9
2018-May-13 05:30N 26°11' W 079°20'7711.8
2018-May-12 23:00N 26°06' W 077°54'20 1.5 200 / 61018.1 2.2 23.423.425.5
2018-May-12 10:00N 25°54' W 077°36'4321.7 040 / 81018.310.8 25.025.026.0
2018-May-12 08:00N 26°36' W 077°24'   080 / 121018.227.0 25.023.526.0
Track history (hours):
 
Tides and Currents Weather Stations Pressure Air Temp Water Temp Dewpoint Dewpoint Depression Visibility Wind Speed Wind Dir Waves Ship Positions

Disney Magic

Last reported at 2018-May-22 06:00 UTC. Time now 2018-May-22 06:25 UTC.
Position N 38°36' W 009°24'.

Type: Passenger vessel. MMSI: 308516000.

Date/timePositionNaut miles runAvg speedWind from/ knotsBaromVisibWave heightAir tempDewpointWater temp
2018-May-22 06:00N 38°36' W 009°24'917.4
2018-May-22 05:30N 38°34' W 009°35'917.4
2018-May-22 05:01N 38°32' W 009°46'917.5
2018-May-22 04:30N 38°30' W 009°57'917.5
2018-May-22 04:00N 38°28' W 010°07'2617.6
2018-May-22 02:32N 38°25' W 010°40'017.5
2018-May-22 02:30N 38°25' W 010°41'917.5
2018-May-22 02:01N 38°25' W 010°52'1017.6
2018-May-22 01:26N 38°24' W 011°05'1 2.1
2018-May-22 01:00N 38°24' W 011°06'15619.5 180 / 201012.4 2.2 16.016.017.0
2018-May-21 17:00N 38°12' W 014°24'42921.2 240 / 141011.0 2.2 19.019.016.0
2018-May-20 20:48N 37°45' W 023°27'620.9
2018-May-20 20:30N 37°45' W 023°35'1121.0
2018-May-20 20:00N 37°44' W 023°48'1121.1
2018-May-20 19:30N 37°43' W 024°01'1020.8
2018-May-20 19:00N 37°43' W 024°14'1121.1
2018-May-20 18:31N 37°42' W 024°28'1121.4
2018-May-20 18:00N 37°41' W 024°41'1121.2
2018-May-20 17:30N 37°40' W 024°55'1020.8
2018-May-20 17:01N 37°40' W 025°08'1121.2
2018-May-20 16:30N 37°40' W 025°21'1020.7
2018-May-20 16:00N 37°41' W 025°34'510.6
2018-May-20 15:30N 37°44' W 025°40'0 0.0
2018-May-20 14:58N 37°44' W 025°40'0 0.0
2018-May-20 14:28N 37°44' W 025°40'0 0.0
2018-May-20 13:58N 37°44' W 025°40'0 0.0
2018-May-20 13:28N 37°44' W 025°40'0 0.0
2018-May-20 12:58N 37°44' W 025°40'0 0.0
2018-May-20 12:28N 37°44' W 025°40'0 0.0
2018-May-20 11:58N 37°44' W 025°40'0 0.0
2018-May-20 11:28N 37°44' W 025°40'0 0.0
2018-May-20 10:58N 37°44' W 025°40'0 0.0
2018-May-20 10:28N 37°44' W 025°40'0 0.0
2018-May-20 09:58N 37°44' W 025°40'0 0.0
2018-May-20 09:30N 37°44' W 025°40'0 0.0
2018-May-20 09:00N 37°44' W 025°40'0 0.0
2018-May-20 08:30N 37°44' W 025°40'0 0.0
2018-May-20 08:00N 37°44' W 025°40'0 0.0
2018-May-20 07:30N 37°44' W 025°40'0 0.0
2018-May-20 07:00N 37°44' W 025°40'0 1.0
2018-May-20 06:30N 37°44' W 025°39'2 4.7
2018-May-20 06:00N 37°42' W 025°41'5 9.7
2018-May-20 05:31N 37°41' W 025°47'5 9.2
2018-May-20 05:00N 37°40' W 025°53'5 9.2
2018-May-20 04:30N 37°39' W 025°58'5 9.8
2018-May-20 04:00N 37°37' W 026°04'5 9.9
2018-May-20 03:30N 37°36' W 026°10'5 9.9
2018-May-20 03:00N 37°35' W 026°16'611.2
2018-May-20 02:30N 37°33' W 026°23'916.9
2018-May-20 02:00N 37°31' W 026°34'816.7
2018-May-20 01:30N 37°29' W 026°44'917.4
2018-May-20 01:00N 37°27' W 026°54'917.3
2018-May-20 00:30N 37°24' W 027°05'917.4
2018-May-20 00:00N 37°22' W 027°15'917.6
2018-May-19 23:29N 37°20' W 027°27'817.4
2018-May-19 23:00N 37°17' W 027°36'917.3
2018-May-19 22:31N 37°15' W 027°47'816.8
2018-May-19 22:00N 37°13' W 027°57'816.7
2018-May-19 21:30N 37°11' W 028°07'816.6
2018-May-19 21:01N 37°09' W 028°17'816.9
2018-May-19 20:30N 37°06' W 028°28'816.9
2018-May-19 20:00N 37°04' W 028°38'917.2
2018-May-19 19:31N 37°02' W 028°48'917.2
2018-May-19 19:00N 36°60' W 028°59'917.1
2018-May-19 18:30N 36°57' W 029°09'18816.3
2018-May-19 07:00N 36°06' W 032°54'47418.2 250 / 121027.010.8 19.816.821.0
2018-May-18 05:00N 34°00' W 042°12'36418.2 180 / 101029.327.0 23.018.224.0
2018-May-17 09:00N 32°24' W 049°12'50520.2 360 / 61029.010.8 23.019.924.7
2018-May-16 08:00N 30°12' W 058°42'21221.2 090 / 101028.327.0 23.019.925.0
2018-May-15 22:00N 29°12' W 062°36'24420.4 100 / 81025.310.8 25.020.425.0
2018-May-15 10:00N 28°12' W 067°06'21619.6 110 / 151022.710.8 25.021.225.3
2018-May-14 23:00N 27°12' W 071°00'25020.8 100 / 131020.110.8 25.021.225.1
2018-May-14 11:00N 26°06' W 075°30'20219.7 110 / 191018.210.8 26.021.526.5
2018-May-14 00:46N 26°12' W 079°15'520.8
2018-May-14 00:30N 26°09' W 079°20'1121.3
2018-May-14 00:00N 26°04' W 079°30'1019.6
2018-May-13 23:30N 25°59' W 079°40'917.9
2018-May-13 23:00N 25°55' W 079°48'918.2
2018-May-13 22:30N 25°50' W 079°57'815.8
2018-May-13 22:00N 25°46' W 080°05'4 8.5
2018-May-13 21:30N 25°46' W 080°09'1 2.0
2018-May-13 20:58N 25°47' W 080°10'0 0.0
2018-May-13 20:28N 25°47' W 080°10'0 0.0
2018-May-13 19:58N 25°47' W 080°10'0 0.0
2018-May-13 19:28N 25°47' W 080°10'0 0.0
2018-May-13 18:58N 25°47' W 080°10'0 0.0
2018-May-13 18:28N 25°47' W 080°10'0 0.0
2018-May-13 17:55N 25°47' W 080°10'0 0.0
2018-May-13 17:28N 25°47' W 080°10'0 0.0
2018-May-13 16:58N 25°47' W 080°10'0 0.0
2018-May-13 16:28N 25°47' W 080°10'0 0.0
2018-May-13 15:58N 25°47' W 080°10'0 0.0
2018-May-13 15:28N 25°47' W 080°10'0 0.0
2018-May-13 14:58N 25°47' W 080°10'0 0.0
2018-May-13 14:28N 25°47' W 080°10'0 0.0
2018-May-13 13:58N 25°47' W 080°10'0 0.0
2018-May-13 13:28N 25°47' W 080°10'0 0.0
2018-May-13 12:58N 25°47' W 080°10'0 0.0
2018-May-13 12:28N 25°47' W 080°10'0 0.0
2018-May-13 11:58N 25°47' W 080°10'0 0.0
2018-May-13 11:28N 25°47' W 080°10'0 0.0
2018-May-13 10:58N 25°47' W 080°10'0 0.0
2018-May-13 10:28N 25°47' W 080°10'0 0.0
2018-May-13 10:00N 25°47' W 080°10'1 1.0
2018-May-13 09:31N 25°47' W 080°11'3 5.4
2018-May-13 09:00N 25°46' W 080°08'611.5
2018-May-13 08:30N 25°47' W 080°02'713.2
2018-May-13 08:00N 25°50' W 079°56'714.8
2018-May-13 07:30N 25°54' W 079°49'815.0
2018-May-13 06:59N 25°58' W 079°42'715.3
2018-May-13 06:30N 26°02' W 079°35'815.6
2018-May-13 06:00N 26°06' W 079°27'815.9
2018-May-13 05:30N 26°11' W 079°20'7711.8
2018-May-12 23:00N 26°06' W 077°54'20 1.5 200 / 61018.1 2.2 23.423.425.5
2018-May-12 10:00N 25°54' W 077°36'4321.7 040 / 81018.310.8 25.025.026.0
2018-May-12 08:00N 26°36' W 077°24'   080 / 121018.227.0 25.023.526.0

Dump ship's entire track history